Strona główna
METAR-TAF:

METAR-TAF

Lotnisko :

Le Touquet, Francja

Szerokość geograficzna: 50-30-53N, Długość geograficzna: 001-37-39E, wysokość: 6 m

Aktualna obserwacja pogody

Raport powstał 20 minut temu, godzina 19:00 UTC
Wiatr 4 kt od zachodnio-północny zachód, zmienny między południowy zachód i północno-północny zachód
Temperatura 18°C
Wilgotność 77%
Ciśnienie 1013 hPa
Widzialność 10 km lub więcej
Brak chmur poniżej 1500 m i brak chmur cumulonimbus

METAR: LFAT 171900Z AUTO 29004KT 230V330 CAVOK 18/14 Q1013

czas: 21:20 (19:20 UTC)

Prognoza

Raport powstał 5 godziny i 20 minut temu, godzina 14:00 UTC
Prognoza ważna od 17 godzina 15 UTC do 17 godzina 24 UTC
Wiatr 10 kt od zachodnio-północny zachód
Widzialność 10 km lub więcej
Brak chmur poniżej 1500 m i brak chmur cumulonimbus
Stopniowe zmiany
od 17 godzina 18 UTC do 17 godzina 21 UTC
Wiatr 5 kt od zachodnio-południowy zachód

TAF: LFAT 171400Z 1715/1724 30010KT CAVOK BECMG 1718/1721 24005KT

Obserwacja i prognoza pogody dla ponad 4000 lotnisk (raport METAR i TAF).

Dostępne stacje oznaczono żółtymi i czerwonymi punktami na mapie.

Najedź kursorem aby zobaczyć nazwę stacji.

Kliknij aby zobaczyć obserwacje i prognozy pogody.

Aby zmienić mapę: kliknij na zielony przycisk z czarnym krzyżykiem, aby powiększyć; na zielony przycisk z myślnikiem, aby pomniejszyć; na zielone strzałki, aby przejść do map sąsiednich.


METAR-TAF: